aviador You're here:

EGUN Decoded Metar

MILDENHALL in ENGLAND
Report Time2017-07-26 05:58:00
UTC Time2017-07-26 06:30:25
Flight Rules vfr VFR
Wind170° at 09 kt
W.Decomp.*RWY 11: 4.4 kt HW 7.9 kt RCW
W.Rank170° ranks 12
Current wind is above 170° avg. (7.8)
Visibility9999 m
Phenomena:N/A
Clouds:Few 080 Hf
CeilingNone
Temp16°C (ISA +1)
Dew Point16°C (100% RH)
AAT14.7°C
QNH1008 hPa
Density Alt571 ft
Elevation33 ft
Report Wrong Elevation
Raw Report
METAR EGUN 260558Z AUTO 17009KT 9999 FEW080 16/16 A2977 RMK AO2
SLP084 60000 T01610161 10161 20128 57015=

Extra information for EGUN:More info

Metar Taf Metar & Taf Last 4 Metars F.Rules Stats Wind Profile Meteogram Temp Stats Airport Information Weather charts Add Link Nearby VenuesMetar ALERT Operation Metar Decoded Social comments